createdAt,value
2022-10-31T00:00:57.318Z,10.58
2022-10-31T00:03:42.977Z,10.58
2022-10-31T00:06:14.713Z,10.56
2022-10-31T00:08:46.389Z,10.56
2022-10-31T00:11:18.188Z,10.59
2022-10-31T00:13:50.095Z,10.62
2022-10-31T00:16:23.084Z,10.65
2022-10-31T00:18:56.232Z,10.68
2022-10-31T00:21:28.835Z,10.72
2022-10-31T00:24:00.896Z,10.75
2022-10-31T00:26:33.645Z,10.78
2022-10-31T00:29:05.574Z,10.78
2022-10-31T00:31:37.279Z,10.76
2022-10-31T00:34:09.536Z,10.71
2022-10-31T00:36:41.469Z,10.66
2022-10-31T00:39:17.052Z,10.62
2022-10-31T00:41:49.092Z,10.60
2022-10-31T00:44:20.756Z,10.61
2022-10-31T00:46:52.450Z,10.64
2022-10-31T00:49:27.083Z,10.65
2022-10-31T00:51:58.957Z,10.66
2022-10-31T00:54:31.923Z,10.69
2022-10-31T00:57:03.564Z,10.71
2022-10-31T00:59:35.328Z,10.72
2022-10-31T01:02:07.253Z,10.74
2022-10-31T01:04:39.025Z,10.77
2022-10-31T01:07:12.419Z,10.77
2022-10-31T01:09:44.322Z,10.78
2022-10-31T01:12:16.035Z,10.78
2022-10-31T01:14:48.264Z,10.78
2022-10-31T01:17:22.797Z,10.78
2022-10-31T01:19:54.596Z,10.76
2022-10-31T01:22:26.320Z,10.77
2022-10-31T01:24:57.995Z,10.76
2022-10-31T01:27:31.222Z,10.77
2022-10-31T01:30:02.885Z,10.78
2022-10-31T01:32:35.043Z,10.82
2022-10-31T01:35:07.701Z,10.82
2022-10-31T01:37:39.340Z,10.83
2022-10-31T01:40:12.973Z,10.84
2022-10-31T01:42:44.603Z,10.84
2022-10-31T01:45:19.340Z,10.84
2022-10-31T01:47:52.339Z,10.83
2022-10-31T01:50:32.795Z,10.85
2022-10-31T01:53:09.196Z,10.86
2022-10-31T01:55:44.896Z,10.86
2022-10-31T01:58:24.026Z,10.85
2022-10-31T02:01:03.302Z,10.81
2022-10-31T02:03:38.725Z,10.77
2022-10-31T02:06:20.214Z,10.73
2022-10-31T02:08:52.648Z,10.70
2022-10-31T02:11:27.130Z,10.66
2022-10-31T02:14:00.309Z,10.63
2022-10-31T02:16:32.338Z,10.60
2022-10-31T02:19:04.579Z,10.58
2022-10-31T02:21:45.980Z,10.57
2022-10-31T02:24:47.455Z,10.56
2022-10-31T02:27:34.988Z,10.56
2022-10-31T02:30:15.090Z,10.58
2022-10-31T02:33:03.932Z,10.59
2022-10-31T02:35:50.054Z,10.61
2022-10-31T02:38:31.770Z,10.62
2022-10-31T02:41:12.236Z,10.63
2022-10-31T02:44:17.293Z,10.66
2022-10-31T02:46:55.005Z,10.64
2022-10-31T02:49:35.165Z,10.56
2022-10-31T02:52:18.679Z,10.49
2022-10-31T02:54:51.755Z,10.41
2022-10-31T02:57:27.486Z,10.36
2022-10-31T03:00:03.013Z,10.33
2022-10-31T03:02:53.083Z,10.31
2022-10-31T03:05:34.798Z,10.30
2022-10-31T03:08:15.252Z,10.29
2022-10-31T03:10:54.286Z,10.27
2022-10-31T03:13:34.584Z,10.26
2022-10-31T03:16:14.439Z,10.25
2022-10-31T03:18:51.617Z,10.24
2022-10-31T03:21:29.781Z,10.25
2022-10-31T03:24:03.290Z,10.27
2022-10-31T03:26:37.779Z,10.30
2022-10-31T03:29:13.263Z,10.31
2022-10-31T03:31:51.167Z,10.34
2022-10-31T03:34:23.942Z,10.35
2022-10-31T03:37:02.037Z,10.36
2022-10-31T03:39:36.353Z,10.35
2022-10-31T03:42:11.100Z,10.33
2022-10-31T03:44:46.831Z,10.30
2022-10-31T03:47:19.050Z,10.22
2022-10-31T03:49:53.851Z,10.16
2022-10-31T03:52:31.133Z,10.14
2022-10-31T03:55:07.896Z,10.13
2022-10-31T03:57:43.441Z,10.13
2022-10-31T04:00:18.126Z,10.13
2022-10-31T04:02:56.518Z,10.12
2022-10-31T04:05:29.511Z,10.11
2022-10-31T04:08:06.821Z,10.09
2022-10-31T04:10:40.866Z,10.10
2022-10-31T04:13:16.358Z,10.11
2022-10-31T04:15:53.664Z,10.12
2022-10-31T04:18:27.860Z,10.12
2022-10-31T04:21:07.656Z,10.14
2022-10-31T04:23:39.791Z,10.12
2022-10-31T04:26:27.027Z,10.08
2022-10-31T04:28:59.335Z,10.02
2022-10-31T04:31:32.341Z,9.96
2022-10-31T04:34:04.018Z,9.92
2022-10-31T04:36:35.988Z,9.89
2022-10-31T04:39:07.914Z,9.87
2022-10-31T04:41:44.602Z,9.88
2022-10-31T04:44:19.949Z,9.90
2022-10-31T04:46:54.882Z,9.91
2022-10-31T04:49:28.007Z,9.92
2022-10-31T04:51:59.667Z,9.93
2022-10-31T04:54:31.758Z,9.94
2022-10-31T04:57:29.118Z,9.91
2022-10-31T05:00:01.056Z,9.86
2022-10-31T05:02:34.147Z,9.85
2022-10-31T05:05:07.272Z,9.82
2022-10-31T05:07:44.037Z,9.80
2022-10-31T05:10:18.184Z,9.75
2022-10-31T05:12:55.638Z,9.73
2022-10-31T05:15:51.416Z,9.74
2022-10-31T05:18:42.600Z,9.73
2022-10-31T05:21:32.991Z,9.72
2022-10-31T05:24:08.242Z,9.69
2022-10-31T05:26:40.257Z,9.65
2022-10-31T05:29:11.992Z,9.63
2022-10-31T05:31:44.255Z,9.64
2022-10-31T05:34:25.478Z,9.64
2022-10-31T05:37:13.580Z,9.67
2022-10-31T05:39:45.390Z,9.71
2022-10-31T05:42:19.752Z,9.77
2022-10-31T05:44:52.684Z,9.83
2022-10-31T05:47:32.465Z,9.91
2022-10-31T05:50:28.734Z,9.97
2022-10-31T05:53:13.199Z,10.06
2022-10-31T05:55:49.026Z,10.12
2022-10-31T05:58:24.687Z,10.17
2022-10-31T06:01:04.654Z,10.22
2022-10-31T06:03:36.581Z,10.30
2022-10-31T06:06:11.450Z,10.37
2022-10-31T06:08:45.542Z,10.43
2022-10-31T06:11:19.748Z,10.49
2022-10-31T06:14:27.022Z,10.55
2022-10-31T06:17:00.267Z,10.61
2022-10-31T06:22:30.359Z,10.74
2022-10-31T06:25:02.235Z,10.80
2022-10-31T06:27:37.862Z,10.89
2022-10-31T06:30:16.451Z,10.98
2022-10-31T06:32:51.552Z,11.08
2022-10-31T06:35:25.278Z,11.17
2022-10-31T06:37:57.689Z,11.28
2022-10-31T06:40:35.696Z,11.40
2022-10-31T06:43:23.025Z,11.50
2022-10-31T06:45:56.755Z,11.62
2022-10-31T06:48:31.958Z,11.72
2022-10-31T06:51:25.161Z,11.82
2022-10-31T06:53:59.772Z,11.91
2022-10-31T06:56:31.906Z,11.95
2022-10-31T06:59:04.078Z,11.98
2022-10-31T07:01:59.484Z,12.01
2022-10-31T07:04:31.715Z,12.05
2022-10-31T07:07:03.566Z,12.11
2022-10-31T07:09:35.491Z,12.19
2022-10-31T07:12:09.224Z,12.28
2022-10-31T07:14:43.516Z,12.36
2022-10-31T07:17:16.800Z,12.46
2022-10-31T07:19:49.691Z,12.54
2022-10-31T07:22:21.590Z,12.61
2022-10-31T07:24:53.464Z,12.69
2022-10-31T07:27:52.265Z,12.82
2022-10-31T07:30:24.168Z,12.91
2022-10-31T07:33:00.251Z,12.99
2022-10-31T07:35:48.423Z,13.05
2022-10-31T07:38:20.659Z,13.13
2022-10-31T07:40:54.997Z,13.19
2022-10-31T07:43:28.025Z,13.25
2022-10-31T07:46:16.339Z,13.32
2022-10-31T07:49:07.899Z,13.38
2022-10-31T07:51:58.524Z,13.42
2022-10-31T07:54:33.874Z,13.45
2022-10-31T07:57:05.657Z,13.46
2022-10-31T07:59:37.816Z,13.48
2022-10-31T08:02:11.159Z,13.53
2022-10-31T08:04:58.670Z,13.59
2022-10-31T08:07:51.834Z,13.68
2022-10-31T08:10:24.593Z,13.80
2022-10-31T08:13:01.352Z,13.93
2022-10-31T08:15:35.323Z,14.02
2022-10-31T08:18:12.513Z,14.08
2022-10-31T08:20:45.258Z,14.13
2022-10-31T08:23:17.714Z,14.18
2022-10-31T08:25:50.044Z,14.22
2022-10-31T08:28:23.125Z,14.27
2022-10-31T08:30:55.343Z,14.34
2022-10-31T08:33:45.272Z,14.44
2022-10-31T08:36:35.683Z,14.55
2022-10-31T08:39:14.800Z,14.65
2022-10-31T08:41:46.496Z,14.75
2022-10-31T08:44:18.639Z,14.83
2022-10-31T08:46:50.847Z,14.89
2022-10-31T08:49:22.636Z,14.89
2022-10-31T08:51:54.521Z,14.96
2022-10-31T08:54:26.477Z,15.03
2022-10-31T08:57:01.102Z,15.09
2022-10-31T08:59:39.857Z,15.14
2022-10-31T09:02:30.736Z,15.20
2022-10-31T09:05:04.560Z,15.25
2022-10-31T09:07:36.378Z,15.32
2022-10-31T09:10:10.110Z,15.41
2022-10-31T09:12:42.450Z,15.51
2022-10-31T09:15:30.505Z,15.57
2022-10-31T09:18:16.749Z,15.61
2022-10-31T09:21:01.827Z,15.64
2022-10-31T09:23:35.630Z,15.60
2022-10-31T09:26:08.383Z,15.59
2022-10-31T09:28:47.401Z,15.65
2022-10-31T09:31:20.500Z,15.76
2022-10-31T09:33:57.836Z,15.82
2022-10-31T09:36:49.820Z,15.94
2022-10-31T09:39:25.597Z,16.04
2022-10-31T09:42:10.097Z,16.12
2022-10-31T09:44:52.652Z,16.22
2022-10-31T09:47:42.937Z,16.28
2022-10-31T09:50:43.336Z,16.34
2022-10-31T09:53:48.580Z,16.41
2022-10-31T09:56:25.621Z,16.50
2022-10-31T09:59:02.823Z,16.59
2022-10-31T10:01:45.511Z,16.71
2022-10-31T10:04:36.801Z,16.83
2022-10-31T10:07:25.319Z,16.95
2022-10-31T10:10:22.659Z,16.97
2022-10-31T10:13:34.531Z,17.00
2022-10-31T10:16:16.940Z,17.06
2022-10-31T10:19:01.020Z,17.17
2022-10-31T10:21:43.481Z,17.16
2022-10-31T10:24:29.149Z,17.18
2022-10-31T10:27:12.444Z,17.26
2022-10-31T10:29:51.509Z,17.32
2022-10-31T10:32:29.675Z,17.32
2022-10-31T10:35:12.284Z,17.43
2022-10-31T10:37:47.393Z,17.57
2022-10-31T10:40:25.120Z,17.74
2022-10-31T10:43:22.534Z,17.88
2022-10-31T10:46:20.290Z,17.98
2022-10-31T10:48:53.840Z,18.05
2022-10-31T10:51:54.431Z,18.10
2022-10-31T10:54:43.725Z,18.16
2022-10-31T10:57:24.640Z,18.25
2022-10-31T10:59:57.143Z,18.29
2022-10-31T11:02:32.955Z,18.33
2022-10-31T11:05:06.055Z,18.35
2022-10-31T11:07:44.354Z,18.38
2022-10-31T11:10:18.000Z,18.42
2022-10-31T11:13:03.700Z,18.50
2022-10-31T11:15:40.140Z,18.59
2022-10-31T11:20:58.011Z,18.76
2022-10-31T11:23:30.812Z,18.84
2022-10-31T11:26:05.967Z,18.87
2022-10-31T11:28:37.766Z,18.90
2022-10-31T11:31:14.905Z,18.91
2022-10-31T11:33:52.665Z,18.96
2022-10-31T11:36:27.133Z,18.99
2022-10-31T11:39:00.858Z,19.00
2022-10-31T11:41:37.056Z,19.03
2022-10-31T11:44:17.209Z,19.08
2022-10-31T11:46:52.286Z,19.09
2022-10-31T11:49:30.733Z,19.14
2022-10-31T11:52:06.561Z,19.19
2022-10-31T11:54:43.696Z,19.25
2022-10-31T11:57:28.333Z,19.29
2022-10-31T12:00:02.156Z,19.33
2022-10-31T12:02:44.062Z,19.39
2022-10-31T12:05:26.090Z,19.49
2022-10-31T12:08:03.485Z,19.51
2022-10-31T12:10:48.338Z,19.58
2022-10-31T12:13:34.754Z,19.60
2022-10-31T12:16:14.941Z,19.61
2022-10-31T12:18:59.732Z,19.61
2022-10-31T12:21:53.090Z,19.61
2022-10-31T12:24:41.007Z,19.61
2022-10-31T12:27:26.511Z,19.61
2022-10-31T12:30:15.347Z,19.63
2022-10-31T12:33:05.449Z,19.68
2022-10-31T12:36:01.011Z,19.71
2022-10-31T12:38:51.595Z,19.70
2022-10-31T12:41:38.722Z,19.68
2022-10-31T12:44:26.117Z,19.70
2022-10-31T12:47:15.630Z,19.69
2022-10-31T12:49:57.485Z,19.71
2022-10-31T12:52:44.368Z,19.77
2022-10-31T12:55:40.074Z,19.80
2022-10-31T12:58:17.075Z,19.85
2022-10-31T13:00:52.273Z,19.90
2022-10-31T13:03:31.249Z,19.97
2022-10-31T13:06:09.881Z,20.03
2022-10-31T13:08:45.851Z,20.06
2022-10-31T13:11:22.598Z,20.03
2022-10-31T13:14:04.843Z,19.97
2022-10-31T13:16:39.829Z,19.96
2022-10-31T13:19:19.769Z,19.97
2022-10-31T13:21:59.689Z,19.97
2022-10-31T13:24:37.757Z,19.93
2022-10-31T13:27:16.935Z,19.93
2022-10-31T13:29:58.970Z,19.91
2022-10-31T13:32:40.309Z,19.87
2022-10-31T13:35:20.833Z,19.86
2022-10-31T13:38:03.145Z,19.84
2022-10-31T13:40:45.095Z,19.82
2022-10-31T13:43:26.103Z,19.81
2022-10-31T13:45:58.844Z,19.78
2022-10-31T13:48:43.688Z,19.77
2022-10-31T13:51:25.901Z,19.73
2022-10-31T13:54:09.294Z,19.64
2022-10-31T13:56:42.116Z,19.60
2022-10-31T13:59:23.541Z,19.58
2022-10-31T14:01:58.909Z,19.57
2022-10-31T14:04:38.796Z,19.53
2022-10-31T14:07:13.708Z,19.50
2022-10-31T14:09:57.325Z,19.42
2022-10-31T14:12:33.162Z,19.35
2022-10-31T14:15:17.502Z,19.27
2022-10-31T14:17:52.572Z,19.21
2022-10-31T14:20:38.152Z,19.12
2022-10-31T14:23:34.230Z,19.02
2022-10-31T14:26:36.294Z,18.92
2022-10-31T14:29:26.001Z,18.85
2022-10-31T14:32:02.031Z,18.75
2022-10-31T14:34:37.177Z,18.66
2022-10-31T14:37:21.247Z,18.56
2022-10-31T14:40:07.330Z,18.43
2022-10-31T14:42:59.330Z,18.28
2022-10-31T14:45:41.339Z,18.10
2022-10-31T14:48:36.229Z,17.92
2022-10-31T14:51:15.852Z,17.75
2022-10-31T14:53:51.592Z,17.58
2022-10-31T14:56:28.082Z,17.44
2022-10-31T14:59:03.473Z,17.30
2022-10-31T15:01:38.109Z,17.16
2022-10-31T15:04:23.740Z,17.01
2022-10-31T15:07:01.947Z,16.83
2022-10-31T15:09:37.845Z,16.65
2022-10-31T15:12:26.940Z,16.44
2022-10-31T15:15:00.373Z,16.24
2022-10-31T15:17:32.352Z,16.04
2022-10-31T15:20:05.932Z,15.88
2022-10-31T15:22:37.983Z,15.73
2022-10-31T15:25:19.184Z,15.61
2022-10-31T15:27:52.701Z,15.50
2022-10-31T15:30:27.564Z,15.38
2022-10-31T15:32:59.540Z,15.24
2022-10-31T15:35:32.718Z,15.11
2022-10-31T15:38:05.264Z,14.96
2022-10-31T15:40:38.630Z,14.81
2022-10-31T15:43:16.444Z,14.69
2022-10-31T15:45:48.355Z,14.60
2022-10-31T15:48:24.668Z,14.51
2022-10-31T15:50:59.547Z,14.45
2022-10-31T15:53:37.979Z,14.40
2022-10-31T15:56:13.521Z,14.35
2022-10-31T15:58:49.271Z,14.33
2022-10-31T16:01:26.686Z,14.29
2022-10-31T16:04:23.707Z,14.23
2022-10-31T16:07:04.449Z,14.13
2022-10-31T16:09:36.477Z,14.04
2022-10-31T16:12:08.334Z,13.98
2022-10-31T16:14:43.640Z,13.94
2022-10-31T16:17:18.703Z,13.93
2022-10-31T16:19:55.554Z,13.95
2022-10-31T16:22:31.137Z,13.98
2022-10-31T16:25:07.228Z,13.99
2022-10-31T16:27:40.806Z,13.98
2022-10-31T16:30:32.620Z,13.96
2022-10-31T16:33:04.784Z,13.91
2022-10-31T16:35:38.230Z,13.85
2022-10-31T16:38:10.673Z,13.80
2022-10-31T16:40:42.905Z,13.77
2022-10-31T16:43:16.567Z,13.73
2022-10-31T16:45:49.948Z,13.69
2022-10-31T16:48:24.370Z,13.67
2022-10-31T16:50:56.480Z,13.66
2022-10-31T16:53:28.434Z,13.62
2022-10-31T16:56:03.446Z,13.57
2022-10-31T16:58:37.716Z,13.50
2022-10-31T17:01:10.559Z,13.44
2022-10-31T17:03:43.044Z,13.40
2022-10-31T17:06:16.026Z,13.38
2022-10-31T17:08:48.100Z,13.37
2022-10-31T17:11:23.310Z,13.36
2022-10-31T17:13:57.553Z,13.37
2022-10-31T17:16:29.674Z,13.33
2022-10-31T17:19:01.479Z,13.28
2022-10-31T17:21:34.455Z,13.20
2022-10-31T17:24:06.545Z,13.12
2022-10-31T17:26:38.177Z,13.05
2022-10-31T17:29:09.994Z,12.98
2022-10-31T17:31:42.289Z,12.95
2022-10-31T17:34:13.978Z,12.94
2022-10-31T17:36:50.614Z,12.94
2022-10-31T17:39:22.967Z,12.93
2022-10-31T17:41:54.953Z,12.91
2022-10-31T17:44:26.677Z,12.87
2022-10-31T17:46:58.359Z,12.81
2022-10-31T17:49:30.029Z,12.75
2022-10-31T17:52:01.675Z,12.69
2022-10-31T17:54:33.385Z,12.66
2022-10-31T17:57:05.110Z,12.63
2022-10-31T17:59:36.816Z,12.61
2022-10-31T18:02:10.514Z,12.61
2022-10-31T18:04:42.277Z,12.60
2022-10-31T18:07:19.184Z,12.58
2022-10-31T18:09:51.004Z,12.52
2022-10-31T18:12:23.463Z,12.47
2022-10-31T18:14:55.605Z,12.40
2022-10-31T18:17:27.300Z,12.34
2022-10-31T18:19:59.149Z,12.27
2022-10-31T18:22:30.954Z,12.22
2022-10-31T18:25:02.833Z,12.19
2022-10-31T18:27:34.733Z,12.16
2022-10-31T18:30:08.220Z,12.14
2022-10-31T18:32:39.930Z,12.14
2022-10-31T18:35:11.987Z,12.13
2022-10-31T18:37:43.734Z,12.11
2022-10-31T18:40:15.716Z,12.06
2022-10-31T18:42:47.606Z,12.02
2022-10-31T18:45:32.475Z,12.00
2022-10-31T18:48:15.193Z,11.99
2022-10-31T18:50:48.124Z,11.99
2022-10-31T18:53:19.988Z,12.02
2022-10-31T18:55:51.887Z,12.05
2022-10-31T18:58:23.714Z,12.04
2022-10-31T19:00:56.239Z,11.98
2022-10-31T19:03:29.699Z,11.91
2022-10-31T19:06:01.373Z,11.86
2022-10-31T19:08:35.717Z,11.79
2022-10-31T19:11:09.787Z,11.77
2022-10-31T19:13:43.184Z,11.77
2022-10-31T19:16:16.578Z,11.77
2022-10-31T19:18:48.323Z,11.77
2022-10-31T19:21:20.509Z,11.73
2022-10-31T19:23:56.469Z,11.70
2022-10-31T19:26:28.929Z,11.64
2022-10-31T19:29:01.167Z,11.57
2022-10-31T19:31:33.058Z,11.49
2022-10-31T19:34:04.739Z,11.44
2022-10-31T19:36:37.177Z,11.37
2022-10-31T19:39:08.832Z,11.33
2022-10-31T19:41:40.921Z,11.30
2022-10-31T19:44:15.123Z,11.31
2022-10-31T19:46:53.292Z,11.32
2022-10-31T19:49:25.309Z,11.32
2022-10-31T19:51:56.988Z,11.33
2022-10-31T19:54:29.064Z,11.31
2022-10-31T19:57:00.887Z,11.27
2022-10-31T19:59:39.021Z,11.22
2022-10-31T20:02:19.229Z,11.14
2022-10-31T20:04:51.495Z,11.09
2022-10-31T20:07:23.431Z,11.05
2022-10-31T20:09:55.154Z,10.99
2022-10-31T20:12:26.879Z,10.98
2022-10-31T20:14:58.936Z,10.98
2022-10-31T20:17:30.655Z,11.00
2022-10-31T20:20:07.178Z,11.01
2022-10-31T20:22:39.099Z,11.02
2022-10-31T20:25:11.060Z,11.02
2022-10-31T20:27:42.880Z,11.02
2022-10-31T20:30:15.787Z,10.98
2022-10-31T20:33:00.897Z,10.95
2022-10-31T20:35:32.620Z,10.90
2022-10-31T20:38:04.963Z,10.82
2022-10-31T20:40:37.546Z,10.72
2022-10-31T20:43:10.559Z,10.66
2022-10-31T20:45:42.360Z,10.59
2022-10-31T20:48:14.247Z,10.53
2022-10-31T20:50:45.932Z,10.53
2022-10-31T20:53:17.650Z,10.51
2022-10-31T20:55:49.311Z,10.53
2022-10-31T20:58:20.963Z,10.54
2022-10-31T21:00:52.724Z,10.47
2022-10-31T21:03:24.815Z,10.38
2022-10-31T21:05:58.386Z,10.33
2022-10-31T21:08:31.521Z,10.30
2022-10-31T21:11:06.883Z,10.28
2022-10-31T21:13:40.852Z,10.28
2022-10-31T21:16:14.948Z,10.28
2022-10-31T21:18:49.243Z,10.27
2022-10-31T21:21:27.598Z,10.27
2022-10-31T21:24:05.846Z,10.21
2022-10-31T21:26:40.020Z,10.15
2022-10-31T21:29:12.753Z,10.08
2022-10-31T21:31:45.382Z,10.02
2022-10-31T21:34:17.190Z,9.96
2022-10-31T21:36:48.976Z,9.93
2022-10-31T21:39:21.178Z,9.91
2022-10-31T21:41:52.877Z,9.91
2022-10-31T21:44:24.668Z,9.92
2022-10-31T21:46:56.733Z,9.93
2022-10-31T21:49:28.490Z,9.94
2022-10-31T21:52:00.184Z,9.93
2022-10-31T21:54:33.288Z,9.93
2022-10-31T21:57:05.231Z,9.90
2022-10-31T21:59:37.154Z,9.87
2022-10-31T22:02:10.129Z,9.82
2022-10-31T22:04:42.247Z,9.75
2022-10-31T22:07:13.962Z,9.68
2022-10-31T22:09:47.499Z,9.65
2022-10-31T22:12:19.265Z,9.62
2022-10-31T22:14:50.961Z,9.62
2022-10-31T22:17:22.782Z,9.58
2022-10-31T22:19:54.560Z,9.54
2022-10-31T22:22:26.367Z,9.51
2022-10-31T22:24:58.098Z,9.51
2022-10-31T22:27:30.161Z,9.51
2022-10-31T22:30:02.069Z,9.51
2022-10-31T22:32:33.772Z,9.49
2022-10-31T22:35:06.189Z,9.44
2022-10-31T22:37:37.868Z,9.42
2022-10-31T22:40:14.337Z,9.41
2022-10-31T22:42:46.009Z,9.42
2022-10-31T22:45:17.997Z,9.41
2022-10-31T22:47:49.632Z,9.43
2022-10-31T22:50:21.340Z,9.44
2022-10-31T22:52:53.087Z,9.44
2022-10-31T22:55:27.392Z,9.42
2022-10-31T22:58:00.553Z,9.37
2022-10-31T23:00:32.600Z,9.33
2022-10-31T23:03:04.536Z,9.30
2022-10-31T23:05:36.252Z,9.27
2022-10-31T23:08:09.053Z,9.25
2022-10-31T23:10:42.258Z,9.23
2022-10-31T23:13:31.435Z,9.24
2022-10-31T23:16:03.175Z,9.22
2022-10-31T23:18:49.601Z,9.14
2022-10-31T23:21:44.031Z,9.04
2022-10-31T23:24:15.939Z,8.93
2022-10-31T23:27:05.182Z,8.86
2022-10-31T23:29:38.585Z,8.81
2022-10-31T23:32:13.167Z,8.78
2022-10-31T23:34:45.016Z,8.75
2022-10-31T23:37:17.747Z,8.76
2022-10-31T23:39:50.273Z,8.76
2022-10-31T23:42:22.608Z,8.81
2022-10-31T23:44:54.518Z,8.88
2022-10-31T23:47:26.652Z,8.94
2022-10-31T23:49:58.385Z,8.99
2022-10-31T23:52:30.734Z,8.99
2022-10-31T23:55:02.657Z,8.97
2022-10-31T23:57:34.684Z,8.92
